Time;durP1;ratioP1;P1;durP2;ratioP2;P2;SDS_P1;SDS_P2;PMS_P1;PMS_P2;Temp;Humidity;BMP_temperature;BMP_pressure;BME280_temperature;BME280_humidity;BME280_pressure;Samples;Min_cycle;Max_cycle;Signal;HPM_P1;HPM_P2
2023/10/10 00:01:42;;;;;;;39.73;20.27;;;;;;;5.17;94.43;100608.66;4194230;28;20256;-71
2023/10/10 00:04:12;;;;;;;40.17;19.00;;;;;;;4.97;95.26;100602.00;4196000;28;25774;-71
2023/10/10 00:06:40;;;;;;;40.90;19.47;;;;;;;4.89;95.82;100595.38;4196432;28;22409;-72
2023/10/10 00:09:10;;;;;;;38.10;19.40;;;;;;;4.99;95.24;100598.25;4196738;28;20838;-70
2023/10/10 00:11:43;;;;;;;39.83;20.13;;;;;;;4.90;95.08;100601.56;4205428;28;21888;-72
2023/10/10 00:14:17;;;;;;;41.23;20.97;;;;;;;4.72;95.73;100591.13;4198344;28;20263;-72
2023/10/10 00:16:47;;;;;;;42.50;20.57;;;;;;;4.63;96.37;100601.66;4194615;28;21886;-71
2023/10/10 00:19:29;;;;;;;42.27;20.83;;;;;;;4.69;96.20;100602.09;4193454;28;20362;-73
2023/10/10 00:21:56;;;;;;;46.67;22.13;;;;;;;4.58;96.35;100605.50;4195061;28;20992;-71
2023/10/10 00:24:32;;;;;;;49.67;19.40;;;;;;;4.54;96.15;100603.16;4204845;28;20239;-71
2023/10/10 00:27:22;;;;;;;41.73;20.60;;;;;;;4.38;97.10;100604.19;4197569;28;21831;-70
2023/10/10 00:29:49;;;;;;;40.10;20.23;;;;;;;4.33;97.52;100600.09;4203943;28;21041;-72
2023/10/10 00:32:22;;;;;;;46.90;21.60;;;;;;;4.27;98.09;100596.88;4201538;28;23333;-71
2023/10/10 00:34:50;;;;;;;38.10;19.63;;;;;;;4.31;97.82;100612.72;4196765;28;21680;-71
2023/10/10 00:37:29;;;;;;;43.33;20.53;;;;;;;4.33;97.47;100617.03;4191169;28;21119;-71
2023/10/10 00:39:59;;;;;;;46.43;22.20;;;;;;;4.44;96.69;100617.16;4196804;28;20296;-71
2023/10/10 00:42:36;;;;;;;40.60;20.80;;;;;;;4.39;96.49;100610.38;4191136;28;20240;-72
2023/10/10 00:45:04;;;;;;;46.77;22.23;;;;;;;4.24;97.44;100606.94;4194018;28;26267;-73
2023/10/10 00:47:38;;;;;;;41.20;20.53;;;;;;;4.18;97.53;100596.63;4209320;28;20344;-71
2023/10/10 00:50:08;;;;;;;44.57;22.03;;;;;;;4.13;98.02;100605.81;4196273;28;21798;-72
2023/10/10 00:52:38;;;;;;;40.27;21.13;;;;;;;4.12;97.64;100597.88;4181573;28;20235;-71
2023/10/10 00:55:05;;;;;;;39.03;20.33;;;;;;;4.15;97.55;100603.06;4189303;28;20338;-70
2023/10/10 00:57:35;;;;;;;43.63;20.03;;;;;;;4.02;97.41;100602.13;4201801;28;21975;-70
2023/10/10 01:00:15;;;;;;;42.30;20.33;;;;;;;4.24;97.15;100609.63;4200033;28;21228;-71
2023/10/10 01:02:42;;;;;;;40.57;19.93;;;;;;;4.04;97.17;100592.19;4201147;28;20638;-70
2023/10/10 01:05:12;;;;;;;40.50;20.60;;;;;;;4.12;96.98;100596.06;4188376;28;20237;-72
2023/10/10 01:07:40;;;;;;;41.90;20.20;;;;;;;3.94;97.35;100597.28;4192563;28;20232;-71
2023/10/10 01:10:16;;;;;;;44.23;21.07;;;;;;;3.91;97.51;100592.13;4198717;28;20490;-71
2023/10/10 01:12:46;;;;;;;44.57;22.23;;;;;;;3.86;98.00;100591.56;4192933;28;20306;-70
2023/10/10 01:17:44;;;;;;;44.50;21.67;;;;;;;3.71;97.85;100583.59;4195773;28;25366;-71
2023/10/10 01:20:34;;;;;;;53.70;23.67;;;;;;;3.88;97.86;100589.66;4201704;28;20643;-72
2023/10/10 01:23:02;;;;;;;53.77;23.37;;;;;;;3.75;97.99;100585.09;4207920;28;20280;-74
2023/10/10 01:28:13;;;;;;;51.77;25.20;;;;;;;3.78;97.77;100584.03;4199842;28;20609;-73
2023/10/10 01:33:25;;;;;;;52.97;25.17;;;;;;;3.83;98.04;100584.59;4187626;28;20246;-70
2023/10/10 01:35:55;;;;;;;46.93;24.57;;;;;;;3.71;97.73;100574.66;4203182;28;20314;-69
2023/10/10 01:38:59;;;;;;;51.73;24.37;;;;;;;3.58;98.37;100583.50;4201326;28;21245;-70
2023/10/10 01:41:38;;;;;;;44.10;22.27;;;;;;;3.52;98.41;100589.25;4193369;28;20240;-71
2023/10/10 01:44:10;;;;;;;51.57;24.33;;;;;;;3.50;98.62;100583.13;4190972;28;20410;-71
2023/10/10 01:46:41;;;;;;;51.93;24.60;;;;;;;3.52;98.57;100588.38;4197783;28;20233;-70
2023/10/10 01:49:13;;;;;;;49.33;23.67;;;;;;;3.50;98.51;100596.53;4199188;28;20307;-72
2023/10/10 01:51:43;;;;;;;52.63;25.03;;;;;;;3.36;99.05;100585.84;4201013;28;20229;-69
2023/10/10 01:54:20;;;;;;;47.10;23.43;;;;;;;3.43;99.34;100593.41;4196780;28;22041;-70
2023/10/10 01:56:47;;;;;;;53.97;25.30;;;;;;;3.56;98.25;100596.13;4194458;28;20363;-70
2023/10/10 01:59:19;;;;;;;55.63;24.73;;;;;;;3.48;98.01;100603.78;4206732;28;21761;-70
2023/10/10 02:01:47;;;;;;;50.97;24.60;;;;;;;3.48;98.34;100601.09;4201856;28;21083;-69
2023/10/10 02:04:14;;;;;;;47.07;23.57;;;;;;;3.44;98.46;100600.44;4194380;28;20229;-69
2023/10/10 02:06:45;;;;;;;55.40;25.77;;;;;;;3.44;98.73;100602.28;4200621;28;21307;-70
2023/10/10 02:09:19;;;;;;;50.73;23.03;;;;;;;3.37;98.94;100603.63;4196614;28;20233;-73
2023/10/10 02:11:54;;;;;;;48.93;23.53;;;;;;;3.61;97.63;100599.38;4203556;28;21749;-70
2023/10/10 02:14:25;;;;;;;50.33;24.80;;;;;;;3.60;97.24;100605.69;4198867;28;20244;-71
2023/10/10 02:16:55;;;;;;;59.97;25.83;;;;;;;3.44;97.98;100600.44;4203864;28;20236;-71
2023/10/10 02:19:33;;;;;;;53.57;25.73;;;;;;;3.22;99.29;100594.72;4203850;28;21416;-70
2023/10/10 02:22:12;;;;;;;53.80;25.97;;;;;;;3.30;99.67;100604.00;4194640;28;20241;-71
2023/10/10 02:24:40;;;;;;;54.27;25.87;;;;;;;3.34;99.52;100607.34;4200008;28;20259;-72
2023/10/10 02:27:08;;;;;;;57.10;26.27;;;;;;;3.30;99.48;100608.47;4205354;28;21098;-70
2023/10/10 02:29:35;;;;;;;56.60;26.93;;;;;;;3.26;99.58;100615.00;4199702;28;20292;-70
2023/10/10 02:32:12;;;;;;;50.87;26.10;;;;;;;3.26;99.51;100609.66;4193729;28;20451;-70
2023/10/10 02:34:43;;;;;;;53.90;26.27;;;;;;;3.32;99.09;100620.81;4195308;28;20422;-70
2023/10/10 02:37:30;;;;;;;48.43;24.37;;;;;;;3.34;99.13;100612.69;4189387;28;20265;-71
2023/10/10 02:40:13;;;;;;;53.27;25.97;;;;;;;3.31;98.87;100619.09;4200750;28;21250;-70
2023/10/10 02:42:50;;;;;;;51.17;24.87;;;;;;;3.22;98.67;100622.34;4198477;28;20628;-72
2023/10/10 02:45:28;;;;;;;52.47;26.50;;;;;;;3.05;99.10;100625.19;4191865;28;22418;-71
2023/10/10 02:47:55;;;;;;;54.00;26.27;;;;;;;2.95;99.38;100617.72;4196857;28;20236;-71
2023/10/10 02:50:41;;;;;;;56.00;27.80;;;;;;;3.15;99.14;100611.16;4200121;28;20243;-71
2023/10/10 02:53:08;;;;;;;52.07;25.20;;;;;;;3.25;98.26;100607.91;4200399;28;22014;-71
2023/10/10 02:55:40;;;;;;;53.40;25.77;;;;;;;3.37;97.84;100609.81;4196529;28;20300;-69
2023/10/10 02:58:20;;;;;;;51.57;24.70;;;;;;;3.21;98.19;100609.09;4201900;28;20234;-73
2023/10/10 03:00:51;;;;;;;56.47;24.93;;;;;;;3.31;97.65;100619.09;4199949;28;22311;-73
2023/10/10 03:03:18;;;;;;;54.67;25.97;;;;;;;3.17;98.37;100619.13;4211317;28;26103;-71
2023/10/10 03:05:51;;;;;;;57.33;25.27;;;;;;;3.05;99.10;100617.19;4197929;28;21283;-71
2023/10/10 03:08:34;;;;;;;53.87;24.93;;;;;;;3.03;99.71;100613.72;4204825;28;20240;-68
2023/10/10 03:11:02;;;;;;;55.87;26.27;;;;;;;3.04;100.00;100615.44;4196033;28;21134;-67
2023/10/10 03:13:37;;;;;;;52.40;25.27;;;;;;;3.13;99.84;100614.88;4199793;28;20502;-69
2023/10/10 03:19:13;;;;;;;53.20;26.17;;;;;;;2.95;99.54;100607.03;4208788;28;22416;-70
2023/10/10 03:21:50;;;;;;;52.03;26.43;;;;;;;2.83;100.00;100615.81;4196750;28;20638;-70
2023/10/10 03:27:01;;;;;;;55.77;25.43;;;;;;;2.95;100.00;100624.91;4198636;28;20249;-71
2023/10/10 03:29:49;;;;;;;52.93;24.10;;;;;;;2.97;100.00;100620.34;4196920;28;20244;-70
2023/10/10 03:34:55;;;;;;;43.93;23.10;;;;;;;2.95;100.00;100624.91;4192607;28;20287;-70
2023/10/10 03:40:20;;;;;;;50.47;25.10;;;;;;;2.99;100.00;100619.28;4195919;28;20244;-69
2023/10/10 05:25:23;;;;;;;52.20;25.70;;;;;;;2.73;100.00;100685.03;4200312;28;20316;-68
2023/10/10 05:27:51;;;;;;;52.10;25.03;;;;;;;2.84;100.00;100687.06;4217404;28;20236;-70
2023/10/10 05:30:23;;;;;;;50.97;25.67;;;;;;;2.87;100.00;100696.72;4204961;28;20700;-71
2023/10/10 05:33:02;;;;;;;53.20;25.30;;;;;;;2.93;100.00;100697.22;4208192;28;20228;-72
2023/10/10 05:35:34;;;;;;;48.23;24.50;;;;;;;3.04;100.00;100701.03;4192622;28;20299;-65
2023/10/10 05:38:01;;;;;;;47.73;23.70;;;;;;;3.12;100.00;100702.31;4193469;28;20880;-69
2023/10/10 05:40:33;;;;;;;52.17;25.77;;;;;;;3.32;100.00;100703.75;4207014;28;20225;-70
2023/10/10 05:43:02;;;;;;;51.40;25.17;;;;;;;3.42;100.00;100713.91;4187544;28;20310;-66
2023/10/10 05:45:30;;;;;;;48.50;25.37;;;;;;;3.47;100.00;100718.03;4191475;28;20374;-68
2023/10/10 05:47:57;;;;;;;48.73;25.23;;;;;;;3.57;100.00;100720.97;4206006;28;22332;-67
2023/10/10 05:50:24;;;;;;;50.93;25.30;;;;;;;3.69;99.79;100721.19;4203333;28;20539;-67
2023/10/10 05:52:51;;;;;;;47.07;24.20;;;;;;;3.73;100.00;100720.03;4194460;28;20312;-67
2023/10/10 05:55:18;;;;;;;46.37;24.77;;;;;;;3.86;99.80;100725.47;4194416;28;20285;-67
2023/10/10 05:57:45;;;;;;;50.80;23.60;;;;;;;3.92;99.56;100717.03;4210743;28;20229;-67
2023/10/10 06:00:13;;;;;;;48.13;24.27;;;;;;;3.99;99.19;100729.09;4204871;28;20341;-68
2023/10/10 06:02:46;;;;;;;44.63;24.07;;;;;;;4.10;99.00;100721.25;4196081;28;21182;-67
2023/10/10 06:05:17;;;;;;;50.40;24.17;;;;;;;4.18;97.98;100728.78;4198283;28;20473;-68
2023/10/10 06:07:44;;;;;;;44.80;23.03;;;;;;;4.20;97.97;100724.19;4197629;28;20248;-66
2023/10/10 06:10:17;;;;;;;46.33;22.57;;;;;;;4.30;97.73;100721.75;4196484;28;21586;-68
2023/10/10 06:12:47;;;;;;;43.90;22.60;;;;;;;4.36;97.38;100726.72;4177290;28;20248;-70
2023/10/10 06:15:18;;;;;;;40.77;22.23;;;;;;;4.55;96.65;100723.69;4183931;28;20256;-66
2023/10/10 06:17:46;;;;;;;46.97;21.93;;;;;;;4.39;96.13;100726.53;4198923;28;20424;-65
2023/10/10 06:20:21;;;;;;;43.40;20.70;;;;;;;4.48;96.75;100727.72;4203558;28;20224;-67
2023/10/10 06:22:49;;;;;;;40.20;22.90;;;;;;;4.50;95.93;100732.97;4203521;28;20568;-70
2023/10/10 06:25:17;;;;;;;49.33;22.50;;;;;;;4.71;95.69;100736.94;4218596;28;22853;-66
2023/10/10 06:27:45;;;;;;;45.70;23.10;;;;;;;4.69;95.13;100746.03;4203156;28;23530;-65
2023/10/10 06:30:17;;;;;;;39.00;21.57;;;;;;;4.61;95.81;100741.19;4197339;28;21564;-66
2023/10/10 06:32:46;;;;;;;45.23;22.23;;;;;;;4.69;95.97;100749.59;4188195;28;20407;-67
2023/10/10 06:37:52;;;;;;;47.70;22.37;;;;;;;4.82;95.40;100755.00;4201422;28;20405;-65
2023/10/10 06:40:29;;;;;;;45.63;20.70;;;;;;;5.09;94.37;100754.09;4210832;28;22183;-64
2023/10/10 06:42:56;;;;;;;51.33;21.50;;;;;;;5.24;93.26;100753.06;4235356;28;25419;-67
2023/10/10 06:45:35;;;;;;;50.47;21.13;;;;;;;5.32;93.40;100759.72;4209449;28;20240;-67
2023/10/10 06:48:02;;;;;;;40.57;20.13;;;;;;;5.50;92.75;100760.25;4211751;28;20235;-70
2023/10/10 06:50:32;;;;;;;43.20;21.33;;;;;;;5.70;92.31;100773.16;4198853;28;20254;-65
2023/10/10 06:53:00;;;;;;;37.80;19.07;;;;;;;5.68;91.81;100774.22;4194576;28;25546;-67
2023/10/10 06:55:36;;;;;;;35.03;18.93;;;;;;;5.92;91.65;100771.66;4195347;28;22407;-66
2023/10/10 06:58:05;;;;;;;34.93;17.70;;;;;;;6.00;90.79;100771.97;4203158;28;20232;-66
2023/10/10 07:02:59;;;;;;;43.97;19.67;;;;;;;5.87;91.58;100776.47;4198413;28;21114;-66
2023/10/10 07:05:27;;;;;;;35.40;17.73;;;;;;;6.03;92.46;100779.84;4204326;28;23571;-68
2023/10/10 07:07:58;;;;;;;40.73;19.67;;;;;;;5.85;93.42;100775.75;4198475;28;20278;-67
2023/10/10 07:10:33;;;;;;;35.10;18.20;;;;;;;6.07;93.42;100780.47;4196751;28;22993;-65
2023/10/10 07:13:02;;;;;;;33.60;18.57;;;;;;;6.20;92.59;100775.09;4208465;28;20229;-66
2023/10/10 07:15:35;;;;;;;36.27;18.80;;;;;;;6.11;93.13;100781.13;4229151;28;20331;-66
2023/10/10 07:18:40;;;;;;;37.60;19.57;;;;;;;6.17;93.33;100777.97;4209863;28;20244;-66
2023/10/10 07:21:08;;;;;;;33.07;17.33;;;;;;;6.38;92.84;100783.63;4244078;28;20510;-66
2023/10/10 07:23:37;;;;;;;35.83;19.63;;;;;;;6.40;93.24;100779.03;4278994;28;20243;-67
2023/10/10 07:26:40;;;;;;;37.57;18.80;;;;;;;7.04;91.45;100782.41;4224939;28;23303;-68
2023/10/10 07:29:22;;;;;;;34.80;17.00;;;;;;;8.43;84.42;100786.88;4219813;28;20245;-65
2023/10/10 07:31:44;;;;;;;26.30;14.33;;;;;;;10.38;77.62;100782.09;4232078;28;21867;-66
2023/10/10 07:34:18;;;;;;;29.33;13.20;;;;;;;10.86;72.01;100780.47;4219661;28;21167;-64
2023/10/10 07:36:50;;;;;;;24.37;12.53;;;;;;;12.94;63.74;100772.41;4210588;28;20302;-65
2023/10/10 07:39:32;;;;;;;22.43;11.67;;;;;;;14.00;61.70;100778.84;4206952;28;20232;-64
2023/10/10 07:41:59;;;;;;;20.27;9.73;;;;;;;17.99;50.43;100771.25;4227841;28;21912;-66
2023/10/10 07:44:26;;;;;;;18.83;9.70;;;;;;;17.26;48.38;100770.88;4217438;28;20313;-64
2023/10/10 07:49:40;;;;;;;15.87;8.93;;;;;;;17.46;47.51;100781.34;4229857;28;20374;-67
2023/10/10 07:52:16;;;;;;;16.57;8.87;;;;;;;16.08;50.95;100781.75;4203650;28;20224;-68
2023/10/10 07:54:46;;;;;;;14.80;8.90;;;;;;;16.77;50.08;100780.22;4211308;28;20603;-68
2023/10/10 07:57:22;;;;;;;17.17;8.10;;;;;;;19.73;42.68;100769.59;4218823;28;20237;-70
2023/10/10 07:59:54;;;;;;;14.20;8.17;;;;;;;20.13;41.97;100766.28;4222373;28;21007;-67
2023/10/10 08:02:34;;;;;;;12.53;7.57;;;;;;;20.37;39.10;100777.81;4205017;28;20240;-66
2023/10/10 08:05:09;;;;;;;12.07;7.10;;;;;;;22.23;36.03;100780.22;4194773;28;20284;-68
2023/10/10 08:07:37;;;;;;;14.13;7.20;;;;;;;22.97;34.91;100782.66;4199328;28;20789;-67
2023/10/10 08:10:13;;;;;;;11.27;7.50;;;;;;;22.54;34.41;100781.41;4229186;28;20753;-66
2023/10/10 08:12:41;;;;;;;14.77;7.63;;;;;;;23.47;32.99;100777.28;4238679;28;20307;-66
2023/10/10 08:15:24;;;;;;;11.10;6.10;;;;;;;23.26;33.03;100775.72;4246797;28;20236;-67
2023/10/10 08:17:58;;;;;;;14.17;7.07;;;;;;;23.30;32.54;100782.47;4240144;28;20229;-66
2023/10/10 08:23:08;;;;;;;12.17;6.40;;;;;;;19.04;42.04;100773.00;4216117;28;20620;-67
2023/10/10 08:25:38;;;;;;;13.60;6.83;;;;;;;17.17;44.27;100764.63;4216467;28;20283;-70
2023/10/10 08:28:05;;;;;;;12.13;6.30;;;;;;;20.60;37.50;100766.53;4203731;28;20357;-67
2023/10/10 08:30:32;;;;;;;12.17;5.80;;;;;;;21.11;35.93;100764.34;4222938;28;20232;-68
2023/10/10 08:33:01;;;;;;;10.17;5.13;;;;;;;19.85;39.45;100755.34;4220560;28;20251;-66
2023/10/10 08:35:38;;;;;;;10.50;5.93;;;;;;;22.75;33.63;100756.28;4207929;28;20220;-68
2023/10/10 08:38:06;;;;;;;11.00;6.07;;;;;;;23.64;31.57;100744.38;4209361;28;20251;-67
2023/10/10 08:40:36;;;;;;;11.60;6.20;;;;;;;20.98;36.30;100748.66;4221511;28;21412;-70
2023/10/10 08:43:03;;;;;;;12.47;6.40;;;;;;;19.39;39.16;100751.16;4220906;28;20370;-69
2023/10/10 08:45:39;;;;;;;13.03;7.03;;;;;;;19.58;38.93;100744.13;4212770;28;20241;-66
2023/10/10 08:48:12;;;;;;;12.27;6.90;;;;;;;17.10;43.86;100752.72;4224479;28;20232;-68
2023/10/10 08:50:41;;;;;;;16.07;8.07;;;;;;;15.17;48.52;100742.78;4207446;28;20231;-66
2023/10/10 08:53:12;;;;;;;14.43;6.80;;;;;;;14.06;51.75;100755.56;4216767;28;20225;-66
2023/10/10 08:55:40;;;;;;;15.73;7.40;;;;;;;14.49;51.27;100750.13;4212927;28;22471;-69
2023/10/10 08:58:08;;;;;;;12.50;7.30;;;;;;;14.11;52.03;100753.22;4209846;28;21107;-67
2023/10/10 09:00:35;;;;;;;10.63;7.03;;;;;;;15.31;49.18;100754.88;4227476;28;20420;-66
2023/10/10 09:03:03;;;;;;;13.90;7.77;;;;;;;14.43;51.50;100746.19;4205495;28;20225;-66
2023/10/10 09:05:31;;;;;;;13.97;7.83;;;;;;;15.16;49.06;100746.53;4211468;28;24875;-71
2023/10/10 09:08:06;;;;;;;17.40;8.63;;;;;;;14.99;49.33;100742.97;4208959;28;20236;-67
2023/10/10 09:10:42;;;;;;;16.07;8.80;;;;;;;14.98;49.24;100755.72;4210193;28;22790;-66
2023/10/10 09:13:09;;;;;;;11.50;7.17;;;;;;;15.26;47.40;100747.19;4207823;28;26539;-68
2023/10/10 09:15:40;;;;;;;11.90;7.43;;;;;;;14.62;48.99;100755.09;4193860;28;20237;-66
2023/10/10 09:18:17;;;;;;;20.93;8.13;;;;;;;14.72;49.05;100751.25;4210537;28;20360;-67
2023/10/10 09:20:47;;;;;;;15.13;7.60;;;;;;;14.61;49.31;100756.97;4218145;28;20240;-70
2023/10/10 09:23:32;;;;;;;15.73;8.30;;;;;;;14.85;48.17;100750.75;4197829;28;20241;-67
2023/10/10 09:29:03;;;;;;;13.87;7.47;;;;;;;14.45;49.62;100741.44;4233032;28;22906;-66
2023/10/10 09:31:31;;;;;;;13.23;6.60;;;;;;;13.86;51.06;100750.34;4203198;28;20579;-65
2023/10/10 09:34:03;;;;;;;12.27;6.73;;;;;;;13.78;50.80;100755.78;4206392;28;20298;-67
2023/10/10 09:36:37;;;;;;;12.37;6.37;;;;;;;14.16;50.79;100752.72;4206519;28;20237;-67
2023/10/10 09:39:08;;;;;;;16.47;7.63;;;;;;;14.16;50.55;100753.56;4203426;28;20231;-67
2023/10/10 09:41:37;;;;;;;13.40;6.40;;;;;;;14.09;50.66;100749.78;4204952;28;20703;-66
2023/10/10 09:49:43;;;;;;;12.70;5.63;;;;;;;13.57;51.17;100759.69;4220125;28;20237;-68
2023/10/10 10:06:50;;;;;;;9.10;4.40;;;;;;;13.58;51.78;100753.25;4181702;28;22194;-66
2023/10/10 10:09:51;;;;;;;7.07;4.03;;;;;;;13.31;52.72;100751.47;4215848;28;20280;-66
2023/10/10 10:12:41;;;;;;;10.43;4.60;;;;;;;13.46;50.65;100747.22;4227199;28;20366;-67
2023/10/10 10:15:28;;;;;;;8.57;3.90;;;;;;;13.26;52.36;100740.22;4217158;28;20252;-68
2023/10/10 10:21:04;;;;;;;7.40;3.50;;;;;;;13.10;51.92;100730.94;4240357;28;20229;-70
2023/10/10 10:23:44;;;;;;;9.03;3.60;;;;;;;12.63;52.96;100725.72;4189657;28;20283;-69
2023/10/10 10:26:31;;;;;;;8.27;3.40;;;;;;;12.74;52.71;100730.06;4204259;28;20236;-70
2023/10/10 10:29:00;;;;;;;6.30;3.10;;;;;;;12.46;54.48;100738.28;4221825;28;22942;-70
2023/10/10 10:31:37;;;;;;;10.67;3.80;;;;;;;13.15;52.42;100733.19;4214851;28;20276;-68
2023/10/10 10:34:16;;;;;;;5.80;2.37;;;;;;;13.46;49.87;100727.34;4191687;28;20411;-70
2023/10/10 10:36:45;;;;;;;7.87;3.20;;;;;;;13.76;49.23;100731.44;4208272;28;21642;-69
2023/10/10 10:39:23;;;;;;;6.13;3.03;;;;;;;13.69;49.98;100726.81;4209815;28;22744;-69
2023/10/10 10:41:56;;;;;;;8.33;2.70;;;;;;;13.60;50.92;100726.75;4194611;28;22504;-70
2023/10/10 10:44:44;;;;;;;5.57;2.97;;;;;;;13.50;50.45;100720.56;4205892;28;20233;-70
2023/10/10 10:47:30;;;;;;;5.30;2.77;;;;;;;13.67;49.53;100726.09;4245682;28;20240;-70
2023/10/10 10:49:57;;;;;;;7.07;3.07;;;;;;;13.19;50.40;100718.25;4222606;28;20233;-72
2023/10/10 10:52:56;;;;;;;6.67;3.57;;;;;;;13.26;49.92;100721.22;4204559;28;22286;-68
2023/10/10 10:55:27;;;;;;;5.90;2.70;;;;;;;13.62;49.61;100715.69;4216491;28;20544;-70
2023/10/10 11:01:00;;;;;;;6.80;2.80;;;;;;;13.79;48.75;100717.50;4201894;28;20251;-72
2023/10/10 11:03:37;;;;;;;6.73;2.60;;;;;;;13.62;48.88;100716.56;4201858;28;25042;-66
2023/10/10 11:06:06;;;;;;;6.00;3.10;;;;;;;13.35;49.12;100708.50;4196939;28;21857;-66
2023/10/10 11:13:54;;;;;;;4.53;2.50;;;;;;;13.36;49.52;100710.22;4203852;28;21762;-66
2023/10/10 11:16:36;;;;;;;6.47;2.77;;;;;;;13.78;48.99;100707.63;4208633;28;22946;-67
2023/10/10 11:19:25;;;;;;;7.60;2.50;;;;;;;13.97;48.22;100700.25;4234594;28;20299;-64
2023/10/10 11:21:53;;;;;;;5.37;2.20;;;;;;;14.04;47.57;100705.88;4182755;28;22543;-66
2023/10/10 11:24:26;;;;;;;8.20;2.50;;;;;;;13.52;48.28;100702.22;4202239;28;20233;-67
2023/10/10 11:29:45;;;;;;;7.70;2.30;;;;;;;12.73;50.27;100698.47;4222073;28;20240;-65
2023/10/10 11:32:23;;;;;;;4.93;2.53;;;;;;;12.83;50.14;100693.84;4194793;28;22950;-67
2023/10/10 11:35:17;;;;;;;3.20;1.90;;;;;;;13.08;49.68;100696.78;4209970;28;20232;-65
2023/10/10 11:38:09;;;;;;;5.17;2.50;;;;;;;13.58;50.56;100706.16;4268287;28;20256;-65
2023/10/10 11:40:32;;;;;;;3.97;2.10;;;;;;;13.36;50.31;100692.06;4231371;28;25914;-70
2023/10/10 11:43:04;;;;;;;7.93;2.43;;;;;;;13.65;48.55;100696.34;4207918;28;20851;-65
2023/10/10 11:45:50;;;;;;;4.50;2.00;;;;;;;13.71;48.20;100692.13;4221572;28;20340;-67
2023/10/10 11:48:18;;;;;;;5.30;2.20;;;;;;;13.79;47.75;100692.16;4263669;28;22155;-65
2023/10/10 11:50:51;;;;;;;4.47;2.07;;;;;;;13.79;48.74;100686.72;4208823;28;21614;-67
2023/10/10 11:53:23;;;;;;;6.23;2.50;;;;;;;14.03;47.18;100696.00;4212276;28;20299;-66
2023/10/10 11:55:54;;;;;;;3.37;2.10;;;;;;;13.90;48.50;100691.00;4233258;28;20232;-65
2023/10/10 11:58:35;;;;;;;5.80;2.20;;;;;;;14.06;46.45;100692.97;4244880;28;20233;-64
2023/10/10 12:01:05;;;;;;;4.50;2.30;;;;;;;13.94;46.77;100692.41;4217584;28;21755;-65
2023/10/10 12:06:18;;;;;;;6.23;2.63;;;;;;;13.82;48.29;100678.22;4227601;28;20255;-65
2023/10/10 12:08:50;;;;;;;5.33;2.20;;;;;;;14.45;47.06;100683.38;4254782;28;25582;-66
2023/10/10 12:11:21;;;;;;;5.10;2.43;;;;;;;14.82;46.43;100674.78;4231891;28;20407;-65
2023/10/10 12:13:51;;;;;;;4.03;2.20;;;;;;;14.76;44.95;100670.03;4252446;28;20240;-66
2023/10/10 12:16:23;;;;;;;7.50;2.33;;;;;;;14.56;45.80;100672.19;4212389;28;20282;-66
2023/10/10 12:18:54;;;;;;;4.10;1.97;;;;;;;14.19;46.13;100677.00;4209660;28;20296;-63
2023/10/10 12:21:22;;;;;;;5.87;2.57;;;;;;;13.89;46.77;100675.72;4209258;28;20347;-64
2023/10/10 12:23:57;;;;;;;4.80;2.27;;;;;;;13.68;47.56;100673.41;4224057;28;20232;-64
2023/10/10 12:26:29;;;;;;;4.70;2.20;;;;;;;13.82;48.21;100669.22;4265007;28;22707;-67
2023/10/10 12:28:57;;;;;;;7.43;2.57;;;;;;;14.16;48.21;100673.78;4208769;28;20233;-67
2023/10/10 12:31:24;;;;;;;3.83;2.23;;;;;;;14.31;46.75;100666.66;4258424;28;20317;-66
2023/10/10 12:33:54;;;;;;;5.23;2.40;;;;;;;14.38;45.94;100675.03;4192935;28;21050;-64
2023/10/10 12:36:40;;;;;;;9.37;2.40;;;;;;;14.10;47.23;100683.44;4207910;28;20975;-65
2023/10/10 12:39:14;;;;;;;12.50;3.07;;;;;;;14.11;46.97;100679.72;4200210;28;20981;-65
2023/10/10 12:41:47;;;;;;;4.83;2.33;;;;;;;14.09;46.44;100674.44;4197884;28;20224;-65
2023/10/10 12:44:14;;;;;;;5.77;2.27;;;;;;;13.79;46.34;100681.28;4195935;28;20290;-66
2023/10/10 12:46:41;;;;;;;13.33;2.73;;;;;;;13.59;47.30;100684.25;4208247;28;21228;-68
2023/10/10 12:49:11;;;;;;;5.00;2.47;;;;;;;13.46;48.17;100675.66;4200932;28;21200;-65
2023/10/10 12:51:39;;;;;;;6.70;2.20;;;;;;;13.31;48.83;100676.22;4218419;28;20403;-66
2023/10/10 12:54:10;;;;;;;6.87;2.57;;;;;;;12.97;50.75;100671.53;4204232;28;21122;-66
2023/10/10 12:56:48;;;;;;;9.80;3.03;;;;;;;12.81;50.70;100674.13;4198813;28;20233;-66
2023/10/10 12:59:18;;;;;;;8.20;3.87;;;;;;;12.95;50.75;100670.00;4197184;28;21714;-67
2023/10/10 13:01:59;;;;;;;6.93;2.60;;;;;;;12.95;50.53;100667.28;4207680;28;20236;-67
2023/10/10 13:04:31;;;;;;;7.27;2.30;;;;;;;13.23;48.75;100667.13;4209893;28;20790;-66
2023/10/10 13:07:04;;;;;;;8.50;2.47;;;;;;;13.25;48.38;100668.72;4196308;28;20255;-65
2023/10/10 13:09:32;;;;;;;8.50;2.50;;;;;;;13.00;48.54;100657.66;4194297;28;20612;-66
2023/10/10 13:12:02;;;;;;;3.63;1.90;;;;;;;13.26;47.99;100653.25;4205871;28;20258;-66
2023/10/10 13:14:32;;;;;;;4.73;1.90;;;;;;;13.27;47.57;100655.78;4206729;28;22694;-65
2023/10/10 13:19:48;;;;;;;3.37;1.90;;;;;;;13.80;47.10;100650.31;4214730;28;20232;-67
2023/10/10 13:22:20;;;;;;;5.43;2.43;;;;;;;14.02;46.51;100656.19;4201572;28;20263;-66
2023/10/10 13:24:48;;;;;;;6.13;2.40;;;;;;;14.39;45.51;100649.47;4206073;28;20236;-68
2023/10/10 13:27:17;;;;;;;6.40;2.10;;;;;;;14.33;45.35;100642.00;4233703;28;20403;-67
2023/10/10 13:29:44;;;;;;;7.47;1.93;;;;;;;14.07;45.35;100640.25;4231236;28;20236;-66
2023/10/10 13:32:11;;;;;;;4.13;2.10;;;;;;;14.01;44.96;100632.75;4242034;28;20391;-65
2023/10/10 13:34:38;;;;;;;2.93;1.60;;;;;;;13.92;45.32;100631.84;4219834;28;20241;-65
2023/10/10 13:37:07;;;;;;;4.03;1.80;;;;;;;13.93;45.07;100628.94;4205697;28;20237;-68
2023/10/10 13:39:43;;;;;;;4.23;1.83;;;;;;;13.88;45.45;100630.47;4223719;28;22573;-67
2023/10/10 13:42:14;;;;;;;5.47;1.83;;;;;;;13.90;45.51;100622.97;4313630;28;20247;-64
2023/10/10 13:44:42;;;;;;;6.00;2.07;;;;;;;13.57;45.89;100615.53;4242064;28;22539;-65
2023/10/10 13:47:10;;;;;;;3.93;1.90;;;;;;;13.38;46.07;100618.47;4202431;28;22224;-64
2023/10/10 13:49:44;;;;;;;2.93;1.63;;;;;;;13.19;46.24;100616.84;4227834;28;22144;-68
2023/10/10 13:52:13;;;;;;;10.00;2.00;;;;;;;13.41;46.50;100624.47;4215349;28;20344;-65
2023/10/10 13:54:40;;;;;;;15.83;2.80;;;;;;;13.79;45.78;100615.97;4218247;28;20236;-65
2023/10/10 13:57:07;;;;;;;9.17;2.50;;;;;;;13.76;45.32;100617.16;4213785;28;20233;-66
2023/10/10 13:59:34;;;;;;;5.53;2.10;;;;;;;13.84;45.89;100613.63;4204212;28;21713;-67
2023/10/10 14:02:03;;;;;;;6.00;2.20;;;;;;;14.01;46.04;100611.81;4229884;28;20248;-68
2023/10/10 14:04:45;;;;;;;6.70;2.57;;;;;;;14.00;46.26;100599.22;4215369;28;20232;-68
2023/10/10 14:07:14;;;;;;;8.87;2.50;;;;;;;13.97;46.14;100605.00;4196394;28;20257;-67
2023/10/10 14:09:41;;;;;;;6.93;2.00;;;;;;;13.85;46.11;100604.44;4231509;28;20326;-67
2023/10/10 14:12:31;;;;;;;5.30;2.53;;;;;;;13.28;47.43;100586.81;4211670;28;20330;-67
2023/10/10 14:14:59;;;;;;;17.23;2.83;;;;;;;13.23;47.72;100597.31;4193524;28;21750;-65
2023/10/10 14:17:29;;;;;;;5.27;2.63;;;;;;;13.25;48.13;100600.75;4203299;28;20234;-64
2023/10/10 14:19:58;;;;;;;7.10;2.93;;;;;;;13.10;48.47;100591.47;4193143;28;20238;-65
2023/10/10 14:22:25;;;;;;;6.17;3.30;;;;;;;13.06;48.96;100592.78;4195328;28;21092;-65
2023/10/10 14:25:00;;;;;;;6.33;3.10;;;;;;;13.25;48.69;100598.03;4208753;28;20245;-66
2023/10/10 14:27:27;;;;;;;7.37;3.20;;;;;;;13.12;48.95;100603.88;4209283;28;23271;-66
2023/10/10 14:29:54;;;;;;;7.67;3.13;;;;;;;13.04;49.20;100608.41;4200296;28;20869;-68
2023/10/10 14:32:27;;;;;;;8.03;3.30;;;;;;;12.91;49.87;100608.84;4200973;28;20244;-66
2023/10/10 14:35:05;;;;;;;5.47;3.00;;;;;;;13.14;49.11;100607.28;4181179;28;20232;-67
2023/10/10 14:37:32;;;;;;;7.17;3.60;;;;;;;13.10;49.03;100597.75;4200567;28;20858;-70
2023/10/10 14:40:19;;;;;;;8.97;3.50;;;;;;;13.11;49.77;100602.19;4194881;28;20572;-66